Dera Bugti Weather



Dera Bugti's Current Weather

Temprature 15.79o light rain

light rain

Rain: 112 %

Min Temprature15.79o
Max Temprature15.79o
Humidity48
Wind Speed2.12 m/h
Sun Rise07:14:57
Sun Set17:56:46
Current Time: 27-Jan-2020 18:26:47
Lat/Lon: 29.03, 69.15




Dera Bugti's Geo Location



Dera Bugti's Weather Forecast

Time Overall Temp Min Temp Max Temp Humidity Wind Speed Rain
27-Jan-2020 (Mon)
20:00:00 light rain 12.150 12.150 12.150 74 5.43 m/h 131 %
23:00:00 light rain 12.950 12.950 12.950 61 2.3 m/h 25 %
28-Jan-2020 (Tue)
02:00:00 overcast clouds 11.950 11.950 11.950 54 2.12 m/h 0 %
05:00:00 broken clouds 10.800 10.800 10.800 48 4.64 m/h 0 %
08:00:00 clear sky 10.060 10.060 10.060 47 2.7 m/h 0 %
11:00:00 clear sky 14.150 14.150 14.150 35 3 m/h 0 %
14:00:00 clear sky 16.520 16.520 16.520 28 5.43 m/h 0 %
17:00:00 clear sky 15.520 15.520 15.520 32 5.22 m/h 0 %
20:00:00 clear sky 13.060 13.060 13.060 40 3.51 m/h 0 %
23:00:00 clear sky 11.740 11.740 11.740 46 2.53 m/h 0 %
29-Jan-2020 (Wed)
02:00:00 clear sky 10.550 10.550 10.550 47 1.73 m/h 0 %
05:00:00 clear sky 9.380 9.380 9.380 49 1.31 m/h 0 %
08:00:00 clear sky 9.780 9.780 9.780 48 0.98 m/h 0 %
11:00:00 clear sky 14.620 14.620 14.620 31 0.31 m/h 0 %
14:00:00 clear sky 16.450 16.450 16.450 30 2.62 m/h 0 %
17:00:00 clear sky 16.480 16.480 16.480 28 3.01 m/h 0 %
20:00:00 clear sky 13.480 13.480 13.480 37 2.73 m/h 0 %
23:00:00 clear sky 11.290 11.290 11.290 42 0.85 m/h 0 %
30-Jan-2020 (Thu)
02:00:00 clear sky 10.150 10.150 10.150 42 1.03 m/h 0 %
05:00:00 few clouds 9.130 9.130 9.130 40 1.01 m/h 0 %
08:00:00 broken clouds 9.940 9.940 9.940 39 1.47 m/h 0 %
11:00:00 scattered clouds 14.610 14.610 14.610 33 1.82 m/h 0 %
14:00:00 clear sky 16.370 16.370 16.370 33 2.66 m/h 0 %
17:00:00 clear sky 16.070 16.070 16.070 34 3.53 m/h 0 %
20:00:00 clear sky 13.670 13.670 13.670 42 1.99 m/h 0 %
23:00:00 clear sky 12.600 12.600 12.600 44 2.1 m/h 0 %
31-Jan-2020 (Fri)
02:00:00 clear sky 11.480 11.480 11.480 46 1.85 m/h 0 %
05:00:00 clear sky 11.000 11.000 11.000 46 2.96 m/h 0 %
08:00:00 few clouds 11.120 11.120 11.120 46 2.61 m/h 0 %
11:00:00 scattered clouds 15.290 15.290 15.290 31 0.76 m/h 0 %
14:00:00 clear sky 17.200 17.200 17.200 27 2.89 m/h 0 %
17:00:00 clear sky 17.050 17.050 17.050 25 4.21 m/h 0 %
20:00:00 clear sky 14.040 14.040 14.040 35 2.04 m/h 0 %
23:00:00 clear sky 12.740 12.740 12.740 36 2.15 m/h 0 %
01-Feb-2020 (Sat)
02:00:00 clear sky 12.200 12.200 12.200 28 5.88 m/h 0 %
05:00:00 clear sky 11.090 11.090 11.090 27 4.54 m/h 0 %
08:00:00 clear sky 10.360 10.360 10.360 28 2.65 m/h 0 %
11:00:00 clear sky 15.380 15.380 15.380 19 1.59 m/h 0 %
14:00:00 clear sky 17.290 17.290 17.290 18 1.3 m/h 0 %
17:00:00 clear sky 17.400 17.400 17.400 19 1.11 m/h 0 %

Famous Cities (61)